OXFORD AIRPORT | Local Weather
17097
page-template-default,page,page-id-17097,ajax_fade,page_not_loaded,,hide_top_bar_on_mobile_header,qode-child-theme-ver-1.0.0,qode-theme-ver-10.0,wpb-js-composer js-comp-ver-4.11.2.1,vc_responsive
 

LOCAL WEATHER

METAR & TAF for EGTK Oxford Kidlington.

Available data for EGTK from the past hour
OXFORD
Metar
EGTK 242050Z 12003KT 9999 SCT025 15/13 Q1019

20:50 UTC

Wind: 120° 3kt

Visibility: 9999 m

Sky: SCT 2500 ft

Temp: 15 deg C / 59 deg F

Dewpoint: 13 deg C / 55.4 deg F

Pressure: 1019 hPa

TAF
TAF EGTK 241707Z 2418/2422 14009KT 9999 FEW040 TEMPO 2418/2422 8000 -RA PROB30 TEMPO 2418/2422 RADZ BKN012